sensor_id;sensor_type;location;lat;lon;timestamp;P1;durP1;ratioP1;P2;durP2;ratioP2
33858;SDS011;20156;47.486;12.074;2023-06-04T00:00:09;7.20;;;6.45;;
33858;SDS011;20156;47.486;12.074;2023-06-04T00:02:35;7.57;;;6.82;;
33858;SDS011;20156;47.486;12.074;2023-06-04T00:05:00;11.65;;;7.97;;
33858;SDS011;20156;47.486;12.074;2023-06-04T00:07:26;7.78;;;6.97;;
33858;SDS011;20156;47.486;12.074;2023-06-04T00:09:52;8.20;;;7.45;;
33858;SDS011;20156;47.486;12.074;2023-06-04T00:12:18;7.45;;;6.75;;
33858;SDS011;20156;47.486;12.074;2023-06-04T00:14:44;6.88;;;6.28;;
33858;SDS011;20156;47.486;12.074;2023-06-04T00:17:10;8.32;;;7.05;;
33858;SDS011;20156;47.486;12.074;2023-06-04T00:19:38;6.53;;;5.90;;
33858;SDS011;20156;47.486;12.074;2023-06-04T00:22:04;9.63;;;6.47;;
33858;SDS011;20156;47.486;12.074;2023-06-04T00:24:31;8.75;;;6.45;;
33858;SDS011;20156;47.486;12.074;2023-06-04T00:26:56;7.75;;;6.63;;
33858;SDS011;20156;47.486;12.074;2023-06-04T00:29:22;6.78;;;6.07;;
33858;SDS011;20156;47.486;12.074;2023-06-04T00:31:47;9.40;;;6.30;;
33858;SDS011;20156;47.486;12.074;2023-06-04T00:34:12;6.68;;;6.07;;
33858;SDS011;20156;47.486;12.074;2023-06-04T00:36:38;8.20;;;6.53;;
33858;SDS011;20156;47.486;12.074;2023-06-04T00:39:05;7.72;;;5.95;;
33858;SDS011;20156;47.486;12.074;2023-06-04T00:41:30;6.13;;;5.45;;
33858;SDS011;20156;47.486;12.074;2023-06-04T00:43:56;6.90;;;6.30;;
33858;SDS011;20156;47.486;12.074;2023-06-04T00:46:25;6.28;;;5.68;;
33858;SDS011;20156;47.486;12.074;2023-06-04T00:48:51;7.57;;;6.88;;
33858;SDS011;20156;47.486;12.074;2023-06-04T00:51:17;7.40;;;6.65;;
33858;SDS011;20156;47.486;12.074;2023-06-04T00:53:43;8.45;;;7.68;;
33858;SDS011;20156;47.486;12.074;2023-06-04T00:56:09;6.10;;;5.60;;
33858;SDS011;20156;47.486;12.074;2023-06-04T00:58:37;6.70;;;6.05;;
33858;SDS011;20156;47.486;12.074;2023-06-04T01:01:10;6.47;;;5.97;;
33858;SDS011;20156;47.486;12.074;2023-06-04T01:03:45;6.13;;;5.63;;
33858;SDS011;20156;47.486;12.074;2023-06-04T01:09:01;6.20;;;5.60;;
33858;SDS011;20156;47.486;12.074;2023-06-04T01:11:35;5.95;;;5.45;;
33858;SDS011;20156;47.486;12.074;2023-06-04T01:14:02;6.63;;;6.00;;
33858;SDS011;20156;47.486;12.074;2023-06-04T01:16:30;5.80;;;5.30;;
33858;SDS011;20156;47.486;12.074;2023-06-04T01:25:42;9.95;;;6.55;;
33858;SDS011;20156;47.486;12.074;2023-06-04T01:28:09;6.80;;;6.20;;
33858;SDS011;20156;47.486;12.074;2023-06-04T01:30:37;7.78;;;6.75;;
33858;SDS011;20156;47.486;12.074;2023-06-04T01:33:14;6.07;;;5.57;;
33858;SDS011;20156;47.486;12.074;2023-06-04T01:35:41;5.35;;;4.85;;
33858;SDS011;20156;47.486;12.074;2023-06-04T01:38:06;6.43;;;5.82;;
33858;SDS011;20156;47.486;12.074;2023-06-04T01:40:32;6.82;;;5.47;;
33858;SDS011;20156;47.486;12.074;2023-06-04T01:42:58;6.40;;;5.80;;
33858;SDS011;20156;47.486;12.074;2023-06-04T01:45:24;6.90;;;6.30;;
33858;SDS011;20156;47.486;12.074;2023-06-04T01:47:51;7.30;;;6.55;;
33858;SDS011;20156;47.486;12.074;2023-06-04T01:50:16;6.90;;;6.22;;
33858;SDS011;20156;47.486;12.074;2023-06-04T01:52:42;7.05;;;5.80;;
33858;SDS011;20156;47.486;12.074;2023-06-04T01:55:08;6.18;;;5.63;;
33858;SDS011;20156;47.486;12.074;2023-06-04T01:57:37;6.65;;;5.78;;
33858;SDS011;20156;47.486;12.074;2023-06-04T02:00:03;7.05;;;6.35;;
33858;SDS011;20156;47.486;12.074;2023-06-04T02:02:34;7.50;;;6.82;;
33858;SDS011;20156;47.486;12.074;2023-06-04T02:05:06;8.60;;;7.15;;
33858;SDS011;20156;47.486;12.074;2023-06-04T02:07:40;7.28;;;6.57;;
33858;SDS011;20156;47.486;12.074;2023-06-04T02:10:16;6.78;;;6.07;;
33858;SDS011;20156;47.486;12.074;2023-06-04T02:13:02;5.82;;;5.32;;
33858;SDS011;20156;47.486;12.074;2023-06-04T02:15:29;6.88;;;6.25;;
33858;SDS011;20156;47.486;12.074;2023-06-04T02:17:56;6.93;;;6.28;;
33858;SDS011;20156;47.486;12.074;2023-06-04T02:20:24;7.78;;;6.65;;
33858;SDS011;20156;47.486;12.074;2023-06-04T02:22:51;7.22;;;6.43;;
33858;SDS011;20156;47.486;12.074;2023-06-04T02:25:16;7.40;;;6.65;;
33858;SDS011;20156;47.486;12.074;2023-06-04T02:27:41;7.90;;;6.95;;
33858;SDS011;20156;47.486;12.074;2023-06-04T02:30:07;7.18;;;6.38;;
33858;SDS011;20156;47.486;12.074;2023-06-04T02:32:33;7.38;;;6.68;;
33858;SDS011;20156;47.486;12.074;2023-06-04T02:35:00;8.38;;;6.75;;
33858;SDS011;20156;47.486;12.074;2023-06-04T02:37:26;8.35;;;6.65;;
33858;SDS011;20156;47.486;12.074;2023-06-04T02:39:52;8.18;;;7.38;;
33858;SDS011;20156;47.486;12.074;2023-06-04T02:42:17;7.47;;;6.70;;
33858;SDS011;20156;47.486;12.074;2023-06-04T02:44:43;7.65;;;6.75;;
33858;SDS011;20156;47.486;12.074;2023-06-04T02:47:08;7.95;;;6.82;;
33858;SDS011;20156;47.486;12.074;2023-06-04T02:49:33;7.00;;;6.15;;
33858;SDS011;20156;47.486;12.074;2023-06-04T02:51:59;7.00;;;5.75;;
33858;SDS011;20156;47.486;12.074;2023-06-04T02:54:24;7.00;;;6.07;;
33858;SDS011;20156;47.486;12.074;2023-06-04T02:56:50;7.68;;;6.30;;
33858;SDS011;20156;47.486;12.074;2023-06-04T02:59:16;7.20;;;6.30;;
33858;SDS011;20156;47.486;12.074;2023-06-04T03:01:41;6.63;;;5.90;;
33858;SDS011;20156;47.486;12.074;2023-06-04T03:04:07;7.10;;;6.40;;
33858;SDS011;20156;47.486;12.074;2023-06-04T03:06:35;7.30;;;6.63;;
33858;SDS011;20156;47.486;12.074;2023-06-04T03:09:04;9.68;;;6.15;;
33858;SDS011;20156;47.486;12.074;2023-06-04T03:11:30;7.00;;;6.30;;
33858;SDS011;20156;47.486;12.074;2023-06-04T03:13:55;8.57;;;6.28;;
33858;SDS011;20156;47.486;12.074;2023-06-04T03:16:20;7.18;;;6.50;;
33858;SDS011;20156;47.486;12.074;2023-06-04T03:18:46;6.43;;;5.82;;
33858;SDS011;20156;47.486;12.074;2023-06-04T03:21:11;7.75;;;6.15;;
33858;SDS011;20156;47.486;12.074;2023-06-04T03:23:38;6.63;;;6.00;;
33858;SDS011;20156;47.486;12.074;2023-06-04T03:26:04;7.53;;;6.82;;
33858;SDS011;20156;47.486;12.074;2023-06-04T03:28:31;6.82;;;6.10;;
33858;SDS011;20156;47.486;12.074;2023-06-04T03:30:57;6.97;;;6.32;;
33858;SDS011;20156;47.486;12.074;2023-06-04T03:33:23;6.57;;;5.50;;
33858;SDS011;20156;47.486;12.074;2023-06-04T03:35:49;6.15;;;5.53;;
33858;SDS011;20156;47.486;12.074;2023-06-04T03:38:15;6.60;;;5.90;;
33858;SDS011;20156;47.486;12.074;2023-06-04T03:40:40;7.20;;;6.25;;
33858;SDS011;20156;47.486;12.074;2023-06-04T03:43:06;6.13;;;5.53;;
33858;SDS011;20156;47.486;12.074;2023-06-04T03:45:32;5.90;;;5.30;;
33858;SDS011;20156;47.486;12.074;2023-06-04T03:47:57;5.90;;;5.40;;
33858;SDS011;20156;47.486;12.074;2023-06-04T03:50:23;9.23;;;5.68;;
33858;SDS011;20156;47.486;12.074;2023-06-04T03:52:48;6.40;;;5.80;;
33858;SDS011;20156;47.486;12.074;2023-06-04T03:55:14;6.60;;;5.70;;
33858;SDS011;20156;47.486;12.074;2023-06-04T03:57:40;9.60;;;6.70;;
33858;SDS011;20156;47.486;12.074;2023-06-04T04:00:07;7.68;;;6.88;;
33858;SDS011;20156;47.486;12.074;2023-06-04T04:02:37;7.65;;;6.95;;
33858;SDS011;20156;47.486;12.074;2023-06-04T04:05:02;7.70;;;7.00;;
33858;SDS011;20156;47.486;12.074;2023-06-04T04:07:28;7.15;;;5.65;;
33858;SDS011;20156;47.486;12.074;2023-06-04T04:09:53;5.65;;;5.15;;
33858;SDS011;20156;47.486;12.074;2023-06-04T04:12:19;5.43;;;4.93;;
33858;SDS011;20156;47.486;12.074;2023-06-04T04:14:44;5.97;;;5.38;;
33858;SDS011;20156;47.486;12.074;2023-06-04T04:17:11;5.95;;;5.10;;
33858;SDS011;20156;47.486;12.074;2023-06-04T04:19:38;6.43;;;5.80;;
33858;SDS011;20156;47.486;12.074;2023-06-04T04:22:03;5.72;;;5.13;;
33858;SDS011;20156;47.486;12.074;2023-06-04T04:24:28;6.10;;;5.38;;
33858;SDS011;20156;47.486;12.074;2023-06-04T04:26:54;5.93;;;5.30;;
33858;SDS011;20156;47.486;12.074;2023-06-04T04:29:20;5.85;;;5.20;;
33858;SDS011;20156;47.486;12.074;2023-06-04T04:31:59;5.60;;;4.93;;
33858;SDS011;20156;47.486;12.074;2023-06-04T04:34:52;5.93;;;5.32;;
33858;SDS011;20156;47.486;12.074;2023-06-04T04:37:19;5.78;;;5.18;;
33858;SDS011;20156;47.486;12.074;2023-06-04T04:39:49;6.05;;;5.45;;
33858;SDS011;20156;47.486;12.074;2023-06-04T04:42:17;5.90;;;5.40;;
33858;SDS011;20156;47.486;12.074;2023-06-04T04:44:43;5.95;;;5.38;;
33858;SDS011;20156;47.486;12.074;2023-06-04T04:47:12;5.50;;;5.00;;
33858;SDS011;20156;47.486;12.074;2023-06-04T04:49:39;5.60;;;4.78;;
33858;SDS011;20156;47.486;12.074;2023-06-04T04:52:04;6.53;;;5.45;;
33858;SDS011;20156;47.486;12.074;2023-06-04T04:54:29;6.53;;;5.30;;
33858;SDS011;20156;47.486;12.074;2023-06-04T04:56:55;6.78;;;6.20;;
33858;SDS011;20156;47.486;12.074;2023-06-04T04:59:20;6.78;;;6.07;;
33858;SDS011;20156;47.486;12.074;2023-06-04T05:01:45;6.15;;;5.57;;
33858;SDS011;20156;47.486;12.074;2023-06-04T05:04:11;5.88;;;5.38;;
33858;SDS011;20156;47.486;12.074;2023-06-04T05:06:37;6.70;;;6.10;;
33858;SDS011;20156;47.486;12.074;2023-06-04T05:09:02;5.75;;;5.25;;
33858;SDS011;20156;47.486;12.074;2023-06-04T05:11:28;5.90;;;5.40;;
33858;SDS011;20156;47.486;12.074;2023-06-04T05:13:54;5.38;;;4.97;;
33858;SDS011;20156;47.486;12.074;2023-06-04T05:16:20;6.60;;;5.97;;
33858;SDS011;20156;47.486;12.074;2023-06-04T05:18:47;6.22;;;5.63;;
33858;SDS011;20156;47.486;12.074;2023-06-04T05:21:16;5.70;;;5.20;;
33858;SDS011;20156;47.486;12.074;2023-06-04T05:23:42;6.55;;;5.95;;
33858;SDS011;20156;47.486;12.074;2023-06-04T05:26:09;6.82;;;6.22;;
33858;SDS011;20156;47.486;12.074;2023-06-04T05:28:34;7.53;;;5.70;;
33858;SDS011;20156;47.486;12.074;2023-06-04T05:31:00;5.78;;;5.18;;
33858;SDS011;20156;47.486;12.074;2023-06-04T05:33:25;6.22;;;5.63;;
33858;SDS011;20156;47.486;12.074;2023-06-04T05:35:52;7.60;;;6.70;;
33858;SDS011;20156;47.486;12.074;2023-06-04T05:38:19;6.45;;;5.85;;
33858;SDS011;20156;47.486;12.074;2023-06-04T05:40:45;6.95;;;5.60;;
33858;SDS011;20156;47.486;12.074;2023-06-04T05:43:10;6.15;;;5.55;;
33858;SDS011;20156;47.486;12.074;2023-06-04T05:45:36;7.53;;;6.82;;
33858;SDS011;20156;47.486;12.074;2023-06-04T05:48:02;6.53;;;6.03;;
33858;SDS011;20156;47.486;12.074;2023-06-04T05:50:28;6.55;;;5.25;;
33858;SDS011;20156;47.486;12.074;2023-06-04T05:52:54;5.88;;;5.38;;
33858;SDS011;20156;47.486;12.074;2023-06-04T05:55:19;5.10;;;4.60;;
33858;SDS011;20156;47.486;12.074;2023-06-04T05:57:45;5.20;;;4.70;;
33858;SDS011;20156;47.486;12.074;2023-06-04T06:00:10;6.07;;;5.57;;
33858;SDS011;20156;47.486;12.074;2023-06-04T06:02:36;6.15;;;5.30;;
33858;SDS011;20156;47.486;12.074;2023-06-04T06:05:04;5.63;;;5.13;;
33858;SDS011;20156;47.486;12.074;2023-06-04T06:07:31;5.28;;;4.82;;
33858;SDS011;20156;47.486;12.074;2023-06-04T06:09:57;5.22;;;4.75;;
33858;SDS011;20156;47.486;12.074;2023-06-04T06:12:22;5.97;;;5.38;;
33858;SDS011;20156;47.486;12.074;2023-06-04T06:14:48;6.07;;;5.22;;
33858;SDS011;20156;47.486;12.074;2023-06-04T06:17:13;6.13;;;5.53;;
33858;SDS011;20156;47.486;12.074;2023-06-04T06:19:39;6.82;;;4.82;;
33858;SDS011;20156;47.486;12.074;2023-06-04T06:22:04;5.53;;;5.03;;
33858;SDS011;20156;47.486;12.074;2023-06-04T06:24:29;7.15;;;5.38;;
33858;SDS011;20156;47.486;12.074;2023-06-04T06:26:55;6.75;;;6.07;;
33858;SDS011;20156;47.486;12.074;2023-06-04T06:29:20;5.78;;;5.28;;
33858;SDS011;20156;47.486;12.074;2023-06-04T06:31:46;6.30;;;5.70;;
33858;SDS011;20156;47.486;12.074;2023-06-04T06:34:12;6.50;;;5.97;;
33858;SDS011;20156;47.486;12.074;2023-06-04T06:36:37;5.80;;;5.30;;
33858;SDS011;20156;47.486;12.074;2023-06-04T06:39:03;6.78;;;6.18;;
33858;SDS011;20156;47.486;12.074;2023-06-04T06:41:29;6.05;;;5.43;;
33858;SDS011;20156;47.486;12.074;2023-06-04T06:43:56;6.43;;;5.82;;
33858;SDS011;20156;47.486;12.074;2023-06-04T06:46:24;7.85;;;7.15;;
33858;SDS011;20156;47.486;12.074;2023-06-04T06:48:49;5.97;;;5.45;;
33858;SDS011;20156;47.486;12.074;2023-06-04T06:51:15;7.35;;;6.70;;
33858;SDS011;20156;47.486;12.074;2023-06-04T06:53:40;6.05;;;5.50;;
33858;SDS011;20156;47.486;12.074;2023-06-04T06:56:06;6.20;;;5.63;;
33858;SDS011;20156;47.486;12.074;2023-06-04T06:58:32;5.80;;;5.40;;
33858;SDS011;20156;47.486;12.074;2023-06-04T07:00:57;6.88;;;6.20;;
33858;SDS011;20156;47.486;12.074;2023-06-04T07:03:23;8.45;;;6.28;;
33858;SDS011;20156;47.486;12.074;2023-06-04T07:05:48;6.05;;;5.45;;
33858;SDS011;20156;47.486;12.074;2023-06-04T07:08:13;5.93;;;5.43;;
33858;SDS011;20156;47.486;12.074;2023-06-04T07:10:39;7.70;;;6.75;;
33858;SDS011;20156;47.486;12.074;2023-06-04T07:13:04;9.45;;;5.90;;
33858;SDS011;20156;47.486;12.074;2023-06-04T07:15:30;5.75;;;5.25;;
33858;SDS011;20156;47.486;12.074;2023-06-04T07:17:55;7.80;;;5.53;;
33858;SDS011;20156;47.486;12.074;2023-06-04T07:20:21;7.32;;;6.63;;
33858;SDS011;20156;47.486;12.074;2023-06-04T07:22:46;7.28;;;6.57;;
33858;SDS011;20156;47.486;12.074;2023-06-04T07:25:12;6.45;;;5.78;;
33858;SDS011;20156;47.486;12.074;2023-06-04T07:27:37;6.78;;;6.28;;
33858;SDS011;20156;47.486;12.074;2023-06-04T07:30:03;7.95;;;6.32;;
33858;SDS011;20156;47.486;12.074;2023-06-04T07:32:29;7.20;;;6.28;;
33858;SDS011;20156;47.486;12.074;2023-06-04T07:34:54;6.10;;;5.13;;
33858;SDS011;20156;47.486;12.074;2023-06-04T07:37:20;6.00;;;5.50;;
33858;SDS011;20156;47.486;12.074;2023-06-04T07:39:45;7.43;;;6.13;;
33858;SDS011;20156;47.486;12.074;2023-06-04T07:42:10;6.20;;;5.60;;
33858;SDS011;20156;47.486;12.074;2023-06-04T07:44:36;7.50;;;5.93;;
33858;SDS011;20156;47.486;12.074;2023-06-04T07:47:02;5.97;;;5.47;;
33858;SDS011;20156;47.486;12.074;2023-06-04T07:49:28;6.20;;;5.60;;
33858;SDS011;20156;47.486;12.074;2023-06-04T07:51:53;5.63;;;5.05;;
33858;SDS011;20156;47.486;12.074;2023-06-04T07:54:19;5.40;;;4.90;;
33858;SDS011;20156;47.486;12.074;2023-06-04T07:56:44;5.03;;;4.63;;
33858;SDS011;20156;47.486;12.074;2023-06-04T07:59:10;5.13;;;4.72;;
33858;SDS011;20156;47.486;12.074;2023-06-04T08:01:35;6.55;;;4.47;;
33858;SDS011;20156;47.486;12.074;2023-06-04T08:04:01;6.03;;;4.30;;
33858;SDS011;20156;47.486;12.074;2023-06-04T08:06:26;4.43;;;4.00;;
33858;SDS011;20156;47.486;12.074;2023-06-04T08:08:52;6.43;;;3.88;;
33858;SDS011;20156;47.486;12.074;2023-06-04T08:11:18;4.45;;;4.05;;
33858;SDS011;20156;47.486;12.074;2023-06-04T08:13:43;4.43;;;3.95;;
33858;SDS011;20156;47.486;12.074;2023-06-04T08:16:09;4.05;;;3.65;;
33858;SDS011;20156;47.486;12.074;2023-06-04T08:18:38;4.70;;;4.30;;
33858;SDS011;20156;47.486;12.074;2023-06-04T08:21:04;4.35;;;3.83;;
33858;SDS011;20156;47.486;12.074;2023-06-04T08:23:31;4.30;;;3.90;;
33858;SDS011;20156;47.486;12.074;2023-06-04T08:25:56;5.40;;;4.90;;
33858;SDS011;20156;47.486;12.074;2023-06-04T08:28:23;4.90;;;4.45;;
33858;SDS011;20156;47.486;12.074;2023-06-04T08:30:49;5.43;;;4.93;;
33858;SDS011;20156;47.486;12.074;2023-06-04T08:33:15;4.93;;;4.43;;
33858;SDS011;20156;47.486;12.074;2023-06-04T08:35:40;4.70;;;4.30;;
33858;SDS011;20156;47.486;12.074;2023-06-04T08:38:05;5.00;;;4.20;;
33858;SDS011;20156;47.486;12.074;2023-06-04T08:40:31;17.95;;;4.63;;
33858;SDS011;20156;47.486;12.074;2023-06-04T08:42:56;4.38;;;3.90;;
33858;SDS011;20156;47.486;12.074;2023-06-04T08:45:25;4.05;;;3.67;;
33858;SDS011;20156;47.486;12.074;2023-06-04T08:47:51;3.47;;;3.25;;
33858;SDS011;20156;47.486;12.074;2023-06-04T08:50:17;5.15;;;4.18;;
33858;SDS011;20156;47.486;12.074;2023-06-04T08:52:44;5.00;;;3.97;;
33858;SDS011;20156;47.486;12.074;2023-06-04T08:55:13;4.05;;;3.67;;
33858;SDS011;20156;47.486;12.074;2023-06-04T08:57:39;4.22;;;3.72;;
33858;SDS011;20156;47.486;12.074;2023-06-04T09:00:08;4.22;;;3.83;;
33858;SDS011;20156;47.486;12.074;2023-06-04T09:02:35;4.30;;;3.90;;
33858;SDS011;20156;47.486;12.074;2023-06-04T09:05:03;4.30;;;3.90;;
33858;SDS011;20156;47.486;12.074;2023-06-04T09:07:29;3.78;;;3.47;;
33858;SDS011;20156;47.486;12.074;2023-06-04T09:09:56;4.45;;;4.07;;
33858;SDS011;20156;47.486;12.074;2023-06-04T09:12:24;5.57;;;3.72;;
33858;SDS011;20156;47.486;12.074;2023-06-04T09:14:50;4.82;;;4.22;;
33858;SDS011;20156;47.486;12.074;2023-06-04T09:17:22;3.80;;;3.50;;
33858;SDS011;20156;47.486;12.074;2023-06-04T09:19:49;4.03;;;3.72;;
33858;SDS011;20156;47.486;12.074;2023-06-04T09:22:15;3.90;;;3.60;;
33858;SDS011;20156;47.486;12.074;2023-06-04T09:24:41;5.55;;;3.80;;
33858;SDS011;20156;47.486;12.074;2023-06-04T09:27:11;4.00;;;3.58;;
33858;SDS011;20156;47.486;12.074;2023-06-04T09:29:37;4.30;;;3.90;;
33858;SDS011;20156;47.486;12.074;2023-06-04T09:32:04;5.90;;;4.10;;
33858;SDS011;20156;47.486;12.074;2023-06-04T09:34:29;3.97;;;3.60;;
33858;SDS011;20156;47.486;12.074;2023-06-04T09:36:56;3.80;;;3.40;;
33858;SDS011;20156;47.486;12.074;2023-06-04T09:39:22;4.50;;;4.10;;
33858;SDS011;20156;47.486;12.074;2023-06-04T09:42:00;5.13;;;3.80;;
33858;SDS011;20156;47.486;12.074;2023-06-04T09:44:28;4.43;;;4.03;;
33858;SDS011;20156;47.486;12.074;2023-06-04T09:46:58;3.88;;;3.58;;
33858;SDS011;20156;47.486;12.074;2023-06-04T09:49:23;4.03;;;3.45;;
33858;SDS011;20156;47.486;12.074;2023-06-04T09:51:49;3.78;;;3.47;;
33858;SDS011;20156;47.486;12.074;2023-06-04T09:54:15;4.25;;;3.90;;
33858;SDS011;20156;47.486;12.074;2023-06-04T09:56:41;4.38;;;3.90;;
33858;SDS011;20156;47.486;12.074;2023-06-04T09:59:08;4.57;;;3.97;;
33858;SDS011;20156;47.486;12.074;2023-06-04T10:01:36;5.63;;;4.00;;
33858;SDS011;20156;47.486;12.074;2023-06-04T10:04:05;5.15;;;4.45;;
33858;SDS011;20156;47.486;12.074;2023-06-04T10:06:33;5.15;;;4.65;;
33858;SDS011;20156;47.486;12.074;2023-06-04T10:09:07;4.07;;;3.72;;
33858;SDS011;20156;47.486;12.074;2023-06-04T10:11:34;5.68;;;4.32;;
33858;SDS011;20156;47.486;12.074;2023-06-04T10:14:03;5.15;;;4.65;;
33858;SDS011;20156;47.486;12.074;2023-06-04T10:16:32;4.40;;;4.00;;
33858;SDS011;20156;47.486;12.074;2023-06-04T10:18:58;5.20;;;4.70;;
33858;SDS011;20156;47.486;12.074;2023-06-04T10:21:25;5.65;;;3.92;;
33858;SDS011;20156;47.486;12.074;2023-06-04T10:23:51;5.03;;;4.40;;
33858;SDS011;20156;47.486;12.074;2023-06-04T10:26:17;5.68;;;4.63;;
33858;SDS011;20156;47.486;12.074;2023-06-04T10:28:43;5.10;;;4.38;;
33858;SDS011;20156;47.486;12.074;2023-06-04T10:31:09;4.90;;;4.22;;
33858;SDS011;20156;47.486;12.074;2023-06-04T10:33:35;5.65;;;4.68;;
33858;SDS011;20156;47.486;12.074;2023-06-04T10:36:10;5.97;;;4.22;;
33858;SDS011;20156;47.486;12.074;2023-06-04T10:38:48;4.63;;;4.18;;
33858;SDS011;20156;47.486;12.074;2023-06-04T10:41:16;4.57;;;4.18;;
33858;SDS011;20156;47.486;12.074;2023-06-04T10:43:45;4.95;;;4.45;;
33858;SDS011;20156;47.486;12.074;2023-06-04T10:46:14;5.40;;;4.60;;
33858;SDS011;20156;47.486;12.074;2023-06-04T10:48:50;6.50;;;4.13;;
33858;SDS011;20156;47.486;12.074;2023-06-04T10:51:30;5.80;;;4.47;;
33858;SDS011;20156;47.486;12.074;2023-06-04T10:53:56;6.55;;;4.57;;
33858;SDS011;20156;47.486;12.074;2023-06-04T10:56:28;5.30;;;4.75;;
33858;SDS011;20156;47.486;12.074;2023-06-04T10:59:15;5.72;;;4.18;;
33858;SDS011;20156;47.486;12.074;2023-06-04T11:01:41;6.78;;;4.50;;
33858;SDS011;20156;47.486;12.074;2023-06-04T11:04:17;5.47;;;4.20;;
33858;SDS011;20156;47.486;12.074;2023-06-04T11:06:44;5.53;;;4.10;;
33858;SDS011;20156;47.486;12.074;2023-06-04T11:09:09;4.60;;;3.92;;
33858;SDS011;20156;47.486;12.074;2023-06-04T11:11:39;6.30;;;4.20;;
33858;SDS011;20156;47.486;12.074;2023-06-04T11:14:11;4.95;;;4.55;;
33858;SDS011;20156;47.486;12.074;2023-06-04T11:16:41;5.38;;;4.32;;
33858;SDS011;20156;47.486;12.074;2023-06-04T11:19:06;4.43;;;4.03;;
33858;SDS011;20156;47.486;12.074;2023-06-04T11:21:33;4.97;;;4.47;;
33858;SDS011;20156;47.486;12.074;2023-06-04T11:24:01;4.38;;;3.92;;
33858;SDS011;20156;47.486;12.074;2023-06-04T11:28:57;5.45;;;4.28;;
33858;SDS011;20156;47.486;12.074;2023-06-04T11:31:23;4.30;;;3.90;;
33858;SDS011;20156;47.486;12.074;2023-06-04T11:33:49;4.90;;;4.28;;
33858;SDS011;20156;47.486;12.074;2023-06-04T11:36:27;4.53;;;4.13;;
33858;SDS011;20156;47.486;12.074;2023-06-04T11:38:57;5.68;;;4.10;;
33858;SDS011;20156;47.486;12.074;2023-06-04T11:41:24;6.82;;;4.50;;
33858;SDS011;20156;47.486;12.074;2023-06-04T11:43:56;4.88;;;3.85;;
33858;SDS011;20156;47.486;12.074;2023-06-04T11:46:22;4.78;;;4.22;;
33858;SDS011;20156;47.486;12.074;2023-06-04T11:48:50;4.90;;;4.05;;
33858;SDS011;20156;47.486;12.074;2023-06-04T11:51:17;7.13;;;4.00;;
33858;SDS011;20156;47.486;12.074;2023-06-04T11:53:44;4.80;;;4.22;;
33858;SDS011;20156;47.486;12.074;2023-06-04T11:56:10;4.60;;;4.20;;
33858;SDS011;20156;47.486;12.074;2023-06-04T11:58:36;4.78;;;4.38;;
33858;SDS011;20156;47.486;12.074;2023-06-04T12:01:02;4.65;;;4.25;;
33858;SDS011;20156;47.486;12.074;2023-06-04T12:03:34;6.07;;;4.20;;
33858;SDS011;20156;47.486;12.074;2023-06-04T12:06:13;4.40;;;4.00;;
33858;SDS011;20156;47.486;12.074;2023-06-04T12:11:33;4.45;;;3.92;;
33858;SDS011;20156;47.486;12.074;2023-06-04T12:14:14;4.68;;;3.65;;
33858;SDS011;20156;47.486;12.074;2023-06-04T12:16:43;4.45;;;4.03;;
33858;SDS011;20156;47.486;12.074;2023-06-04T12:19:09;5.85;;;4.30;;
33858;SDS011;20156;47.486;12.074;2023-06-04T12:21:36;4.80;;;3.97;;
33858;SDS011;20156;47.486;12.074;2023-06-04T12:26:32;6.28;;;4.22;;
33858;SDS011;20156;47.486;12.074;2023-06-04T12:29:02;6.63;;;4.45;;
33858;SDS011;20156;47.486;12.074;2023-06-04T12:31:32;5.22;;;4.43;;
33858;SDS011;20156;47.486;12.074;2023-06-04T12:33:59;6.38;;;4.25;;
33858;SDS011;20156;47.486;12.074;2023-06-04T12:36:25;5.05;;;4.30;;
33858;SDS011;20156;47.486;12.074;2023-06-04T12:38:51;4.35;;;3.95;;
33858;SDS011;20156;47.486;12.074;2023-06-04T12:41:16;4.47;;;4.07;;
33858;SDS011;20156;47.486;12.074;2023-06-04T12:43:42;5.63;;;4.50;;
33858;SDS011;20156;47.486;12.074;2023-06-04T12:46:08;5.47;;;4.00;;
33858;SDS011;20156;47.486;12.074;2023-06-04T12:48:33;4.00;;;3.55;;
33858;SDS011;20156;47.486;12.074;2023-06-04T12:50:59;4.22;;;3.83;;
33858;SDS011;20156;47.486;12.074;2023-06-04T12:53:24;6.50;;;4.03;;
33858;SDS011;20156;47.486;12.074;2023-06-04T12:55:49;4.60;;;4.20;;
33858;SDS011;20156;47.486;12.074;2023-06-04T12:58:15;4.68;;;3.90;;
33858;SDS011;20156;47.486;12.074;2023-06-04T13:00:42;4.63;;;4.05;;
33858;SDS011;20156;47.486;12.074;2023-06-04T13:03:07;4.32;;;3.80;;
33858;SDS011;20156;47.486;12.074;2023-06-04T13:05:33;5.32;;;3.53;;
33858;SDS011;20156;47.486;12.074;2023-06-04T13:07:59;4.90;;;4.00;;
33858;SDS011;20156;47.486;12.074;2023-06-04T13:10:26;5.88;;;3.88;;
33858;SDS011;20156;47.486;12.074;2023-06-04T13:12:51;4.20;;;3.80;;
33858;SDS011;20156;47.486;12.074;2023-06-04T13:15:17;6.78;;;4.15;;
33858;SDS011;20156;47.486;12.074;2023-06-04T13:17:42;5.55;;;4.13;;
33858;SDS011;20156;47.486;12.074;2023-06-04T13:20:08;4.75;;;3.63;;
33858;SDS011;20156;47.486;12.074;2023-06-04T13:22:34;5.50;;;4.38;;
33858;SDS011;20156;47.486;12.074;2023-06-04T13:25:00;4.72;;;4.25;;
33858;SDS011;20156;47.486;12.074;2023-06-04T13:27:25;6.20;;;4.13;;
33858;SDS011;20156;47.486;12.074;2023-06-04T13:29:51;5.40;;;3.70;;
33858;SDS011;20156;47.486;12.074;2023-06-04T13:32:16;5.32;;;3.80;;
33858;SDS011;20156;47.486;12.074;2023-06-04T13:34:41;4.93;;;4.25;;
33858;SDS011;20156;47.486;12.074;2023-06-04T13:37:07;4.45;;;4.05;;
33858;SDS011;20156;47.486;12.074;2023-06-04T13:39:35;4.57;;;3.95;;
33858;SDS011;20156;47.486;12.074;2023-06-04T13:42:01;7.47;;;4.13;;
33858;SDS011;20156;47.486;12.074;2023-06-04T13:44:26;4.32;;;3.92;;
33858;SDS011;20156;47.486;12.074;2023-06-04T13:46:53;6.03;;;4.28;;
33858;SDS011;20156;47.486;12.074;2023-06-04T13:49:19;6.53;;;4.00;;
33858;SDS011;20156;47.486;12.074;2023-06-04T13:51:44;5.40;;;4.10;;
33858;SDS011;20156;47.486;12.074;2023-06-04T13:54:10;4.90;;;4.43;;
33858;SDS011;20156;47.486;12.074;2023-06-04T13:56:35;4.13;;;3.72;;
33858;SDS011;20156;47.486;12.074;2023-06-04T13:59:01;6.18;;;4.32;;
33858;SDS011;20156;47.486;12.074;2023-06-04T14:01:26;4.45;;;4.00;;
33858;SDS011;20156;47.486;12.074;2023-06-04T14:03:51;5.13;;;3.95;;
33858;SDS011;20156;47.486;12.074;2023-06-04T14:06:17;5.32;;;4.00;;
33858;SDS011;20156;47.486;12.074;2023-06-04T14:08:42;4.53;;;4.13;;
33858;SDS011;20156;47.486;12.074;2023-06-04T14:11:08;5.72;;;4.18;;
33858;SDS011;20156;47.486;12.074;2023-06-04T14:13:34;4.45;;;3.97;;
33858;SDS011;20156;47.486;12.074;2023-06-04T14:15:59;4.60;;;4.00;;
33858;SDS011;20156;47.486;12.074;2023-06-04T14:18:24;4.43;;;4.03;;
33858;SDS011;20156;47.486;12.074;2023-06-04T14:20:50;5.25;;;3.80;;
33858;SDS011;20156;47.486;12.074;2023-06-04T14:23:15;5.05;;;4.25;;
33858;SDS011;20156;47.486;12.074;2023-06-04T14:25:41;4.43;;;4.03;;
33858;SDS011;20156;47.486;12.074;2023-06-04T14:28:07;5.18;;;4.45;;
33858;SDS011;20156;47.486;12.074;2023-06-04T14:30:32;7.15;;;4.00;;
33858;SDS011;20156;47.486;12.074;2023-06-04T14:32:58;5.70;;;4.45;;
33858;SDS011;20156;47.486;12.074;2023-06-04T14:35:23;4.40;;;4.00;;
33858;SDS011;20156;47.486;12.074;2023-06-04T14:37:48;6.20;;;4.10;;
33858;SDS011;20156;47.486;12.074;2023-06-04T14:40:14;5.05;;;4.55;;
33858;SDS011;20156;47.486;12.074;2023-06-04T14:42:39;6.13;;;4.05;;
33858;SDS011;20156;47.486;12.074;2023-06-04T14:45:05;4.97;;;3.67;;
33858;SDS011;20156;47.486;12.074;2023-06-04T14:47:30;7.40;;;4.47;;